sensor_id;sensor_type;location;lat;lon;timestamp;pressure;altitude;pressure_sealevel;temperature;humidity
59971;BME280;45825;45.434;9.116;2022-12-10T15:28:41;98559.88;;;4.43;100.00
59971;BME280;45825;45.434;9.116;2022-12-10T15:33:47;98549.88;;;4.66;100.00
59971;BME280;45825;45.434;9.116;2022-12-10T15:36:36;98558.22;;;4.57;100.00
59971;BME280;45825;45.434;9.116;2022-12-10T15:41:46;98564.63;;;4.51;100.00
59971;BME280;45825;45.434;9.116;2022-12-10T15:47:01;98567.16;;;4.53;100.00
59971;BME280;45825;45.434;9.116;2022-12-10T15:49:28;98568.75;;;4.55;100.00
59971;BME280;45825;45.434;9.116;2022-12-10T15:51:55;98568.56;;;4.58;100.00
59971;BME280;45825;45.434;9.116;2022-12-10T15:54:41;98565.78;;;4.61;100.00
59971;BME280;45825;45.434;9.116;2022-12-10T15:57:17;98558.75;;;4.78;100.00
59971;BME280;45825;45.434;9.116;2022-12-10T15:59:48;98564.06;;;4.77;100.00
59971;BME280;45825;45.434;9.116;2022-12-10T16:02:40;98564.25;;;4.73;100.00
59971;BME280;45825;45.434;9.116;2022-12-10T16:07:35;98568.53;;;4.89;100.00
59971;BME280;45825;45.434;9.116;2022-12-10T16:10:01;98562.00;;;4.82;100.00
59971;BME280;45825;45.434;9.116;2022-12-10T16:12:26;98567.66;;;4.74;100.00
59971;BME280;45825;45.434;9.116;2022-12-10T16:14:54;98573.63;;;4.76;100.00
59971;BME280;45825;45.434;9.116;2022-12-10T16:17:27;98575.59;;;4.72;100.00
59971;BME280;45825;45.434;9.116;2022-12-10T16:19:56;98574.47;;;4.77;100.00
59971;BME280;45825;45.434;9.116;2022-12-10T16:22:22;98576.56;;;4.86;100.00
59971;BME280;45825;45.434;9.116;2022-12-10T16:24:47;98577.28;;;4.73;100.00
59971;BME280;45825;45.434;9.116;2022-12-10T16:27:15;98581.72;;;4.71;100.00
59971;BME280;45825;45.434;9.116;2022-12-10T16:29:41;98577.28;;;4.73;100.00
59971;BME280;45825;45.434;9.116;2022-12-10T16:32:11;98577.16;;;4.75;100.00
59971;BME280;45825;45.434;9.116;2022-12-10T16:34:37;98568.91;;;4.83;100.00
59971;BME280;45825;45.434;9.116;2022-12-10T16:37:03;98573.84;;;4.87;100.00
59971;BME280;45825;45.434;9.116;2022-12-10T16:39:28;98582.31;;;4.77;100.00
59971;BME280;45825;45.434;9.116;2022-12-10T16:41:54;98587.59;;;4.75;100.00
59971;BME280;45825;45.434;9.116;2022-12-10T16:44:19;98583.47;;;4.56;100.00
59971;BME280;45825;45.434;9.116;2022-12-10T16:46:45;98586.00;;;4.42;100.00
59971;BME280;45825;45.434;9.116;2022-12-10T16:49:10;98588.44;;;4.45;100.00
59971;BME280;45825;45.434;9.116;2022-12-10T16:51:36;98597.59;;;4.36;100.00
59971;BME280;45825;45.434;9.116;2022-12-10T16:54:02;98591.31;;;4.40;100.00
59971;BME280;45825;45.434;9.116;2022-12-10T16:56:29;98588.38;;;4.30;100.00
59971;BME280;45825;45.434;9.116;2022-12-10T16:58:55;98590.72;;;4.35;100.00
59971;BME280;45825;45.434;9.116;2022-12-10T17:01:22;98578.63;;;4.34;100.00
59971;BME280;45825;45.434;9.116;2022-12-10T17:03:49;98589.22;;;4.31;100.00
59971;BME280;45825;45.434;9.116;2022-12-10T17:06:18;98583.84;;;4.34;100.00
59971;BME280;45825;45.434;9.116;2022-12-10T17:08:44;98594.69;;;4.26;100.00
59971;BME280;45825;45.434;9.116;2022-12-10T17:11:22;98596.53;;;4.24;100.00
59971;BME280;45825;45.434;9.116;2022-12-10T17:14:32;98592.09;;;4.10;100.00
59971;BME280;45825;45.434;9.116;2022-12-10T17:16:59;98598.56;;;4.03;100.00
59971;BME280;45825;45.434;9.116;2022-12-10T17:19:30;98597.19;;;4.12;100.00
59971;BME280;45825;45.434;9.116;2022-12-10T17:21:56;98597.63;;;4.20;100.00
59971;BME280;45825;45.434;9.116;2022-12-10T17:24:21;98598.22;;;4.25;100.00
59971;BME280;45825;45.434;9.116;2022-12-10T17:26:47;98589.63;;;4.39;100.00
59971;BME280;45825;45.434;9.116;2022-12-10T17:29:20;98602.06;;;4.34;100.00
59971;BME280;45825;45.434;9.116;2022-12-10T17:31:48;98590.84;;;4.17;100.00
59971;BME280;45825;45.434;9.116;2022-12-10T17:34:14;98597.72;;;4.18;100.00
59971;BME280;45825;45.434;9.116;2022-12-10T17:36:40;98598.81;;;4.14;100.00
59971;BME280;45825;45.434;9.116;2022-12-10T17:39:06;98602.00;;;4.19;100.00
59971;BME280;45825;45.434;9.116;2022-12-10T17:41:32;98598.78;;;4.30;100.00
59971;BME280;45825;45.434;9.116;2022-12-10T17:43:57;98601.75;;;4.24;100.00
59971;BME280;45825;45.434;9.116;2022-12-10T17:46:24;98607.34;;;4.16;100.00
59971;BME280;45825;45.434;9.116;2022-12-10T17:48:51;98608.13;;;4.18;100.00
59971;BME280;45825;45.434;9.116;2022-12-10T17:51:17;98610.06;;;3.99;100.00
59971;BME280;45825;45.434;9.116;2022-12-10T17:53:45;98602.44;;;3.96;100.00
59971;BME280;45825;45.434;9.116;2022-12-10T17:56:18;98601.59;;;3.95;100.00
59971;BME280;45825;45.434;9.116;2022-12-10T17:58:44;98613.50;;;3.83;100.00
59971;BME280;45825;45.434;9.116;2022-12-10T18:01:10;98613.34;;;3.86;100.00
59971;BME280;45825;45.434;9.116;2022-12-10T18:03:36;98617.53;;;3.89;100.00
59971;BME280;45825;45.434;9.116;2022-12-10T18:06:04;98614.28;;;3.85;100.00
59971;BME280;45825;45.434;9.116;2022-12-10T18:08:29;98617.00;;;3.82;100.00
59971;BME280;45825;45.434;9.116;2022-12-10T18:10:54;98615.25;;;3.67;100.00
59971;BME280;45825;45.434;9.116;2022-12-10T18:13:22;98613.97;;;3.58;100.00
59971;BME280;45825;45.434;9.116;2022-12-10T18:15:47;98619.53;;;3.68;100.00
59971;BME280;45825;45.434;9.116;2022-12-10T18:18:13;98619.22;;;3.74;100.00
59971;BME280;45825;45.434;9.116;2022-12-10T18:20:39;98614.34;;;3.84;100.00
59971;BME280;45825;45.434;9.116;2022-12-10T18:23:07;98610.88;;;3.99;100.00
59971;BME280;45825;45.434;9.116;2022-12-10T18:25:33;98604.25;;;3.94;100.00
59971;BME280;45825;45.434;9.116;2022-12-10T18:28:14;98608.28;;;3.83;100.00
59971;BME280;45825;45.434;9.116;2022-12-10T18:30:40;98600.91;;;3.91;100.00
59971;BME280;45825;45.434;9.116;2022-12-10T18:33:09;98599.97;;;3.92;100.00
59971;BME280;45825;45.434;9.116;2022-12-10T18:35:37;98596.69;;;3.89;100.00
59971;BME280;45825;45.434;9.116;2022-12-10T18:38:03;98598.72;;;3.84;100.00
59971;BME280;45825;45.434;9.116;2022-12-10T18:40:28;98603.75;;;3.87;100.00
59971;BME280;45825;45.434;9.116;2022-12-10T18:42:53;98602.59;;;3.92;100.00
59971;BME280;45825;45.434;9.116;2022-12-10T18:45:18;98602.25;;;3.83;100.00
59971;BME280;45825;45.434;9.116;2022-12-10T18:47:44;98597.13;;;3.81;100.00
59971;BME280;45825;45.434;9.116;2022-12-10T18:50:19;98597.22;;;3.80;100.00
59971;BME280;45825;45.434;9.116;2022-12-10T18:52:45;98596.69;;;3.73;100.00
59971;BME280;45825;45.434;9.116;2022-12-10T18:55:11;98600.16;;;3.73;100.00
59971;BME280;45825;45.434;9.116;2022-12-10T18:57:36;98596.03;;;3.69;100.00
59971;BME280;45825;45.434;9.116;2022-12-10T19:00:03;98599.53;;;3.68;100.00
59971;BME280;45825;45.434;9.116;2022-12-10T19:02:29;98599.63;;;3.67;100.00
59971;BME280;45825;45.434;9.116;2022-12-10T19:04:54;98607.28;;;3.70;100.00
59971;BME280;45825;45.434;9.116;2022-12-10T19:07:20;98605.66;;;3.67;100.00
59971;BME280;45825;45.434;9.116;2022-12-10T19:09:45;98603.00;;;3.69;100.00
59971;BME280;45825;45.434;9.116;2022-12-10T19:12:12;98593.19;;;3.74;100.00
59971;BME280;45825;45.434;9.116;2022-12-10T19:14:37;98587.81;;;3.61;100.00
59971;BME280;45825;45.434;9.116;2022-12-10T19:17:03;98590.19;;;3.48;100.00
59971;BME280;45825;45.434;9.116;2022-12-10T19:19:28;98585.34;;;3.42;100.00
59971;BME280;45825;45.434;9.116;2022-12-10T19:21:53;98579.38;;;3.56;100.00
59971;BME280;45825;45.434;9.116;2022-12-10T19:24:18;98591.63;;;3.54;100.00
59971;BME280;45825;45.434;9.116;2022-12-10T19:26:44;98588.97;;;3.55;100.00
59971;BME280;45825;45.434;9.116;2022-12-10T19:29:18;98588.97;;;3.55;100.00
59971;BME280;45825;45.434;9.116;2022-12-10T19:31:44;98593.75;;;3.63;100.00
59971;BME280;45825;45.434;9.116;2022-12-10T19:34:11;98589.66;;;3.59;100.00
59971;BME280;45825;45.434;9.116;2022-12-10T19:36:36;98587.31;;;3.70;100.00
59971;BME280;45825;45.434;9.116;2022-12-10T19:39:03;98579.25;;;3.75;100.00
59971;BME280;45825;45.434;9.116;2022-12-10T19:41:29;98589.81;;;3.72;100.00
59971;BME280;45825;45.434;9.116;2022-12-10T19:43:54;98592.91;;;3.78;100.00
59971;BME280;45825;45.434;9.116;2022-12-10T19:46:22;98589.66;;;3.75;100.00
59971;BME280;45825;45.434;9.116;2022-12-10T19:48:49;98592.09;;;3.78;100.00
59971;BME280;45825;45.434;9.116;2022-12-10T19:51:15;98589.25;;;3.83;100.00
59971;BME280;45825;45.434;9.116;2022-12-10T19:53:41;98577.47;;;3.75;100.00
59971;BME280;45825;45.434;9.116;2022-12-10T19:56:27;98586.63;;;3.83;100.00
59971;BME280;45825;45.434;9.116;2022-12-10T19:58:55;98589.50;;;3.78;100.00
59971;BME280;45825;45.434;9.116;2022-12-10T20:01:21;98592.16;;;3.76;100.00
59971;BME280;45825;45.434;9.116;2022-12-10T20:03:47;98592.75;;;3.66;100.00
59971;BME280;45825;45.434;9.116;2022-12-10T20:06:20;98592.59;;;3.69;100.00
59971;BME280;45825;45.434;9.116;2022-12-10T20:08:49;98592.66;;;3.67;100.00
59971;BME280;45825;45.434;9.116;2022-12-10T20:11:14;98594.34;;;3.68;100.00
59971;BME280;45825;45.434;9.116;2022-12-10T20:13:40;98600.91;;;3.75;100.00
59971;BME280;45825;45.434;9.116;2022-12-10T20:16:28;98597.97;;;3.82;100.00
59971;BME280;45825;45.434;9.116;2022-12-10T20:18:55;98604.09;;;3.81;100.00
59971;BME280;45825;45.434;9.116;2022-12-10T20:21:22;98595.94;;;3.87;100.00
59971;BME280;45825;45.434;9.116;2022-12-10T20:23:48;98598.38;;;3.90;100.00
59971;BME280;45825;45.434;9.116;2022-12-10T20:26:35;98591.59;;;3.87;100.00
59971;BME280;45825;45.434;9.116;2022-12-10T20:29:02;98582.59;;;3.77;100.00
59971;BME280;45825;45.434;9.116;2022-12-10T20:31:28;98573.03;;;3.77;100.00
59971;BME280;45825;45.434;9.116;2022-12-10T20:33:54;98568.06;;;3.73;100.00
59971;BME280;45825;45.434;9.116;2022-12-10T20:36:22;98576.66;;;3.75;100.00
59971;BME280;45825;45.434;9.116;2022-12-10T20:38:48;98580.19;;;3.74;100.00
59971;BME280;45825;45.434;9.116;2022-12-10T20:41:14;98581.19;;;3.71;100.00
59971;BME280;45825;45.434;9.116;2022-12-10T20:43:40;98574.13;;;3.57;100.00
59971;BME280;45825;45.434;9.116;2022-12-10T20:46:18;98587.03;;;3.59;100.00
59971;BME280;45825;45.434;9.116;2022-12-10T20:48:45;98581.66;;;3.62;100.00
59971;BME280;45825;45.434;9.116;2022-12-10T20:51:11;98576.03;;;3.54;100.00
59971;BME280;45825;45.434;9.116;2022-12-10T20:53:38;98571.56;;;3.56;100.00
59971;BME280;45825;45.434;9.116;2022-12-10T20:56:03;98569.09;;;3.54;100.00
59971;BME280;45825;45.434;9.116;2022-12-10T20:58:29;98567.16;;;3.58;100.00
59971;BME280;45825;45.434;9.116;2022-12-10T21:00:54;98562.19;;;3.53;100.00
59971;BME280;45825;45.434;9.116;2022-12-10T21:03:20;98567.00;;;3.61;100.00
59971;BME280;45825;45.434;9.116;2022-12-10T21:05:45;98560.25;;;3.57;100.00
59971;BME280;45825;45.434;9.116;2022-12-10T21:08:10;98557.72;;;3.39;100.00
59971;BME280;45825;45.434;9.116;2022-12-10T21:10:36;98561.84;;;3.43;100.00
59971;BME280;45825;45.434;9.116;2022-12-10T21:13:18;98557.72;;;3.39;100.00
59971;BME280;45825;45.434;9.116;2022-12-10T21:15:44;98548.25;;;3.38;100.00
59971;BME280;45825;45.434;9.116;2022-12-10T21:18:10;98553.78;;;3.48;100.00
59971;BME280;45825;45.434;9.116;2022-12-10T21:20:37;98550.09;;;3.52;100.00
59971;BME280;45825;45.434;9.116;2022-12-10T21:23:04;98550.50;;;3.44;100.00
59971;BME280;45825;45.434;9.116;2022-12-10T21:25:29;98557.00;;;3.53;100.00
59971;BME280;45825;45.434;9.116;2022-12-10T21:27:57;98550.50;;;3.44;100.00
59971;BME280;45825;45.434;9.116;2022-12-10T21:30:23;98557.03;;;3.35;100.00
59971;BME280;45825;45.434;9.116;2022-12-10T21:32:48;98553.06;;;3.28;100.00
59971;BME280;45825;45.434;9.116;2022-12-10T21:35:14;98551.09;;;3.33;100.00
59971;BME280;45825;45.434;9.116;2022-12-10T21:37:39;98544.97;;;3.34;100.00
59971;BME280;45825;45.434;9.116;2022-12-10T21:40:05;98547.41;;;3.38;100.00
59971;BME280;45825;45.434;9.116;2022-12-10T21:42:30;98533.13;;;3.29;100.00
59971;BME280;45825;45.434;9.116;2022-12-10T21:45:14;98532.53;;;3.40;100.00
59971;BME280;45825;45.434;9.116;2022-12-10T21:47:39;98526.59;;;3.38;100.00
59971;BME280;45825;45.434;9.116;2022-12-10T21:50:05;98528.78;;;3.45;100.00
59971;BME280;45825;45.434;9.116;2022-12-10T21:52:31;98523.03;;;3.22;100.00
59971;BME280;45825;45.434;9.116;2022-12-10T21:54:56;98532.63;;;3.22;100.00
59971;BME280;45825;45.434;9.116;2022-12-10T21:57:21;98533.56;;;3.03;100.00
59971;BME280;45825;45.434;9.116;2022-12-10T21:59:47;98529.81;;;3.09;100.00
59971;BME280;45825;45.434;9.116;2022-12-10T22:02:12;98526.53;;;3.05;100.00
59971;BME280;45825;45.434;9.116;2022-12-10T22:04:38;98530.34;;;3.16;100.00
59971;BME280;45825;45.434;9.116;2022-12-10T22:07:04;98528.81;;;3.12;100.00
59971;BME280;45825;45.434;9.116;2022-12-10T22:09:29;98533.94;;;3.13;100.00
59971;BME280;45825;45.434;9.116;2022-12-10T22:11:54;98525.47;;;3.10;100.00
59971;BME280;45825;45.434;9.116;2022-12-10T22:14:20;98515.63;;;2.99;100.00
59971;BME280;45825;45.434;9.116;2022-12-10T22:16:45;98523.50;;;2.97;100.00
59971;BME280;45825;45.434;9.116;2022-12-10T22:19:11;98524.84;;;3.04;100.00
59971;BME280;45825;45.434;9.116;2022-12-10T22:21:36;98531.22;;;2.99;100.00
59971;BME280;45825;45.434;9.116;2022-12-10T22:24:01;98537.16;;;3.01;100.00
59971;BME280;45825;45.434;9.116;2022-12-10T22:26:26;98545.88;;;3.00;100.00
59971;BME280;45825;45.434;9.116;2022-12-10T22:28:52;98551.47;;;2.92;100.00
59971;BME280;45825;45.434;9.116;2022-12-10T22:31:18;98555.00;;;2.91;100.00
59971;BME280;45825;45.434;9.116;2022-12-10T22:33:44;98557.78;;;2.88;100.00
59971;BME280;45825;45.434;9.116;2022-12-10T22:36:10;98553.78;;;2.81;100.00
59971;BME280;45825;45.434;9.116;2022-12-10T22:38:35;98556.44;;;2.79;100.00
59971;BME280;45825;45.434;9.116;2022-12-10T22:41:01;98550.34;;;2.80;100.00
59971;BME280;45825;45.434;9.116;2022-12-10T22:43:27;98551.94;;;2.83;100.00
59971;BME280;45825;45.434;9.116;2022-12-10T22:45:53;98534.50;;;2.85;100.00
59971;BME280;45825;45.434;9.116;2022-12-10T22:48:19;98538.72;;;2.70;100.00
59971;BME280;45825;45.434;9.116;2022-12-10T22:50:45;98541.50;;;2.84;100.00
59971;BME280;45825;45.434;9.116;2022-12-10T22:53:10;98537.13;;;2.85;100.00
59971;BME280;45825;45.434;9.116;2022-12-10T22:55:35;98545.75;;;2.85;100.00
59971;BME280;45825;45.434;9.116;2022-12-10T22:58:01;98541.50;;;2.84;100.00
59971;BME280;45825;45.434;9.116;2022-12-10T23:00:28;98543.69;;;2.74;100.00
59971;BME280;45825;45.434;9.116;2022-12-10T23:02:53;98533.94;;;2.79;100.00
59971;BME280;45825;45.434;9.116;2022-12-10T23:05:19;98540.63;;;2.84;100.00
59971;BME280;45825;45.434;9.116;2022-12-10T23:07:44;98530.19;;;2.85;100.00
59971;BME280;45825;45.434;9.116;2022-12-10T23:10:10;98540.97;;;2.77;100.00
59971;BME280;45825;45.434;9.116;2022-12-10T23:12:35;98544.16;;;2.83;100.00
59971;BME280;45825;45.434;9.116;2022-12-10T23:15:19;98535.59;;;2.81;100.00
59971;BME280;45825;45.434;9.116;2022-12-10T23:17:44;98537.56;;;2.75;100.00
59971;BME280;45825;45.434;9.116;2022-12-10T23:20:09;98538.19;;;2.63;100.00
59971;BME280;45825;45.434;9.116;2022-12-10T23:22:35;98545.16;;;2.62;100.00
59971;BME280;45825;45.434;9.116;2022-12-10T23:25:01;98530.72;;;2.74;100.00
59971;BME280;45825;45.434;9.116;2022-12-10T23:27:26;98519.94;;;2.82;100.00
59971;BME280;45825;45.434;9.116;2022-12-10T23:29:52;98533.53;;;2.70;100.00
59971;BME280;45825;45.434;9.116;2022-12-10T23:32:17;98534.38;;;2.70;100.00
59971;BME280;45825;45.434;9.116;2022-12-10T23:34:43;98527.06;;;2.61;100.00
59971;BME280;45825;45.434;9.116;2022-12-10T23:37:08;98523.88;;;2.56;100.00
59971;BME280;45825;45.434;9.116;2022-12-10T23:39:33;98522.09;;;2.74;100.00
59971;BME280;45825;45.434;9.116;2022-12-10T23:41:59;98516.97;;;2.72;100.00
59971;BME280;45825;45.434;9.116;2022-12-10T23:44:24;98519.63;;;2.71;100.00
59971;BME280;45825;45.434;9.116;2022-12-10T23:46:49;98524.09;;;2.51;100.00
59971;BME280;45825;45.434;9.116;2022-12-10T23:49:15;98527.31;;;2.39;100.00
59971;BME280;45825;45.434;9.116;2022-12-10T23:51:40;98534.63;;;2.30;100.00
59971;BME280;45825;45.434;9.116;2022-12-10T23:54:06;98540.16;;;2.05;100.00
59971;BME280;45825;45.434;9.116;2022-12-10T23:56:32;98535.50;;;2.12;100.00
59971;BME280;45825;45.434;9.116;2022-12-10T23:58:57;98537.34;;;2.09;100.00
